createdAt,value
2018-11-03T00:00:00.130Z,7.83
2018-11-03T00:02:31.436Z,8.00
2018-11-03T00:05:02.482Z,9.03
2018-11-03T00:07:34.162Z,9.20
2018-11-03T00:10:08.089Z,8.50
2018-11-03T00:12:40.712Z,9.17
2018-11-03T00:15:11.949Z,8.30
2018-11-03T00:17:43.841Z,9.27
2018-11-03T00:20:15.960Z,8.50
2018-11-03T00:22:47.551Z,8.50
2018-11-03T00:25:25.456Z,9.10
2018-11-03T00:27:57.430Z,8.30
2018-11-03T00:30:28.712Z,8.63
2018-11-03T00:32:59.972Z,8.63
2018-11-03T00:35:31.821Z,8.70
2018-11-03T00:38:04.117Z,8.37
2018-11-03T00:40:36.007Z,8.43
2018-11-03T00:43:09.838Z,8.77
2018-11-03T00:45:42.266Z,9.13
2018-11-03T00:48:14.267Z,9.10
2018-11-03T00:50:45.634Z,9.00
2018-11-03T00:53:17.554Z,8.43
2018-11-03T00:55:49.878Z,9.20
2018-11-03T00:58:21.081Z,8.43
2018-11-03T01:00:53.196Z,8.90
2018-11-03T01:03:25.067Z,8.37
2018-11-03T01:05:56.861Z,8.60
2018-11-03T01:08:28.388Z,9.40
2018-11-03T01:11:00.789Z,8.80
2018-11-03T01:13:32.496Z,8.13
2018-11-03T01:16:04.664Z,9.07
2018-11-03T01:18:36.085Z,10.90
2018-11-03T01:21:07.466Z,11.87
2018-11-03T01:23:43.696Z,8.93
2018-11-03T01:26:15.294Z,8.60
2018-11-03T01:28:46.301Z,8.67
2018-11-03T01:31:23.249Z,8.00
2018-11-03T01:33:55.752Z,8.03
2018-11-03T01:36:27.232Z,8.10
2018-11-03T01:38:58.774Z,7.67
2018-11-03T01:41:30.851Z,8.57
2018-11-03T01:44:05.698Z,8.33
2018-11-03T01:46:37.138Z,8.23
2018-11-03T01:49:08.415Z,9.27
2018-11-03T01:51:40.312Z,8.83
2018-11-03T01:54:12.079Z,8.67
2018-11-03T01:56:43.298Z,8.20
2018-11-03T01:59:15.436Z,8.83
2018-11-03T02:01:48.617Z,8.77
2018-11-03T02:04:20.374Z,7.60
2018-11-03T02:06:51.788Z,8.07
2018-11-03T02:09:23.960Z,7.77
2018-11-03T02:11:56.119Z,8.70
2018-11-03T02:14:27.217Z,7.53
2018-11-03T02:16:59.339Z,7.43
2018-11-03T02:19:31.451Z,7.63
2018-11-03T02:22:07.715Z,7.73
2018-11-03T02:24:44.061Z,8.70
2018-11-03T02:27:16.197Z,8.53
2018-11-03T02:29:48.199Z,8.03
2018-11-03T02:32:19.778Z,8.47
2018-11-03T02:34:51.120Z,8.20
2018-11-03T02:37:22.700Z,8.47
2018-11-03T02:39:54.712Z,8.30
2018-11-03T02:42:26.451Z,9.00
2018-11-03T02:44:57.674Z,8.90
2018-11-03T02:47:29.522Z,9.67
2018-11-03T02:50:01.647Z,9.00
2018-11-03T02:52:33.084Z,9.03
2018-11-03T02:55:04.949Z,10.43
2018-11-03T02:57:37.275Z,8.93
2018-11-03T03:00:11.363Z,11.53
2018-11-03T03:02:43.101Z,9.40
2018-11-03T03:05:14.571Z,9.80
2018-11-03T03:07:46.725Z,9.30
2018-11-03T03:10:18.529Z,7.47
2018-11-03T03:12:49.898Z,9.00
2018-11-03T03:15:21.765Z,8.83
2018-11-03T03:17:53.854Z,9.90
2018-11-03T03:20:25.042Z,9.57
2018-11-03T03:22:56.806Z,12.07
2018-11-03T03:25:28.414Z,10.90
2018-11-03T03:28:00.070Z,12.60
2018-11-03T03:30:31.391Z,11.83
2018-11-03T03:33:02.852Z,13.57
2018-11-03T03:35:34.805Z,13.47
2018-11-03T03:38:07.006Z,13.13
2018-11-03T03:40:38.776Z,10.77
2018-11-03T03:43:10.170Z,10.93
2018-11-03T03:45:42.357Z,11.07
2018-11-03T03:48:14.082Z,15.07
2018-11-03T03:50:45.507Z,16.83
2018-11-03T03:53:17.482Z,17.10
2018-11-03T03:55:49.620Z,17.13
2018-11-03T03:58:20.918Z,16.63
2018-11-03T04:00:52.259Z,17.63
2018-11-03T04:03:24.356Z,16.03
2018-11-03T04:05:56.428Z,15.97
2018-11-03T04:08:27.918Z,15.53
2018-11-03T04:10:59.579Z,15.20
2018-11-03T04:13:31.918Z,16.10
2018-11-03T04:16:04.035Z,15.47
2018-11-03T04:18:35.719Z,16.00
2018-11-03T04:21:07.041Z,14.87
2018-11-03T04:23:39.004Z,14.90
2018-11-03T04:26:11.193Z,14.80
2018-11-03T04:28:42.889Z,15.90
2018-11-03T04:31:14.909Z,15.77
2018-11-03T04:33:47.669Z,15.53
2018-11-03T04:36:19.119Z,16.90
2018-11-03T04:38:50.468Z,15.50
2018-11-03T04:41:22.477Z,15.80
2018-11-03T04:43:54.416Z,16.07
2018-11-03T04:46:26.151Z,15.97
2018-11-03T04:49:01.446Z,15.83
2018-11-03T04:51:35.031Z,15.67
2018-11-03T04:54:07.117Z,16.03
2018-11-03T04:56:38.458Z,15.97
2018-11-03T04:59:09.739Z,16.37
2018-11-03T05:01:41.799Z,16.67
2018-11-03T05:04:14.871Z,16.90
2018-11-03T05:06:47.245Z,17.30
2018-11-03T05:09:19.369Z,16.23
2018-11-03T05:11:51.529Z,17.10
2018-11-03T05:14:26.896Z,16.57
2018-11-03T05:16:58.431Z,16.90
2018-11-03T05:19:30.443Z,16.10
2018-11-03T05:22:02.897Z,17.17
2018-11-03T05:24:34.387Z,16.90
2018-11-03T05:27:05.827Z,17.33
2018-11-03T05:29:37.893Z,16.87
2018-11-03T05:32:09.967Z,17.70
2018-11-03T05:34:42.294Z,17.20
2018-11-03T05:37:13.845Z,18.03
2018-11-03T05:39:45.982Z,17.50
2018-11-03T05:42:17.285Z,18.50
2018-11-03T05:44:50.274Z,19.07
2018-11-03T05:47:22.848Z,17.90
2018-11-03T05:49:59.087Z,16.63
2018-11-03T05:52:30.346Z,16.13
2018-11-03T05:55:01.779Z,14.33
2018-11-03T05:57:34.387Z,13.90
2018-11-03T06:00:10.862Z,14.80
2018-11-03T06:02:42.065Z,13.90
2018-11-03T06:05:13.744Z,13.17
2018-11-03T06:07:45.305Z,14.70
2018-11-03T06:10:17.479Z,14.90
2018-11-03T06:12:48.705Z,13.43
2018-11-03T06:15:21.130Z,13.30
2018-11-03T06:17:53.343Z,13.37
2018-11-03T06:20:24.722Z,14.97
2018-11-03T06:22:55.988Z,16.57
2018-11-03T06:25:28.363Z,15.70
2018-11-03T06:28:00.433Z,15.93
2018-11-03T06:30:32.665Z,15.33
2018-11-03T06:33:04.075Z,16.50
2018-11-03T06:35:37.019Z,18.73
2018-11-03T06:38:10.557Z,19.70
2018-11-03T06:40:41.960Z,21.40
2018-11-03T06:43:13.493Z,21.20
2018-11-03T06:45:45.656Z,25.97
2018-11-03T06:48:17.448Z,25.30
2018-11-03T06:50:49.504Z,27.70
2018-11-03T06:53:22.005Z,26.63
2018-11-03T06:55:54.094Z,25.63
2018-11-03T06:58:27.106Z,26.60
2018-11-03T07:00:58.466Z,26.90
2018-11-03T07:03:30.710Z,26.40
2018-11-03T07:06:02.853Z,25.50
2018-11-03T07:08:34.516Z,25.97
2018-11-03T07:11:10.339Z,23.83
2018-11-03T07:13:42.511Z,23.90
2018-11-03T07:16:14.049Z,23.90
2018-11-03T07:18:46.626Z,24.67
2018-11-03T07:21:18.645Z,24.57
2018-11-03T07:23:50.954Z,23.27
2018-11-03T07:26:22.625Z,23.37
2018-11-03T07:28:54.328Z,23.43
2018-11-03T07:31:26.585Z,22.80
2018-11-03T07:33:59.185Z,22.47
2018-11-03T07:36:30.749Z,21.57
2018-11-03T07:39:02.537Z,21.23
2018-11-03T07:41:34.744Z,20.90
2018-11-03T07:44:08.192Z,19.50
2018-11-03T07:46:39.682Z,19.00
2018-11-03T07:49:16.262Z,17.30
2018-11-03T07:51:49.084Z,17.27
2018-11-03T07:54:20.693Z,16.97
2018-11-03T07:56:52.159Z,17.40
2018-11-03T07:59:24.749Z,17.10
2018-11-03T08:02:01.792Z,17.20
2018-11-03T08:04:33.538Z,16.77
2018-11-03T08:07:05.516Z,17.00
2018-11-03T08:09:37.620Z,15.17
2018-11-03T08:12:09.905Z,16.63
2018-11-03T08:14:41.374Z,15.87
2018-11-03T08:17:12.926Z,15.40
2018-11-03T08:19:45.322Z,15.27
2018-11-03T08:22:18.701Z,16.97
2018-11-03T08:24:50.621Z,15.17
2018-11-03T08:27:23.183Z,15.50
2018-11-03T08:29:56.304Z,15.83
2018-11-03T08:32:28.461Z,16.07
2018-11-03T08:34:59.856Z,14.93
2018-11-03T08:37:32.949Z,15.10
2018-11-03T08:40:06.277Z,14.73
2018-11-03T08:42:38.986Z,14.90
2018-11-03T08:45:11.317Z,14.10
2018-11-03T08:47:43.422Z,14.73
2018-11-03T08:50:15.695Z,13.73
2018-11-03T08:52:51.624Z,14.50
2018-11-03T08:55:24.279Z,14.33
2018-11-03T08:57:56.092Z,13.60
2018-11-03T09:00:27.760Z,13.63
2018-11-03T09:03:00.774Z,14.17
2018-11-03T09:05:32.662Z,13.73
2018-11-03T09:08:05.425Z,14.23
2018-11-03T09:10:37.310Z,14.10
2018-11-03T09:13:09.048Z,14.20
2018-11-03T09:15:41.383Z,14.77
2018-11-03T09:18:13.474Z,14.30
2018-11-03T09:20:44.969Z,14.67
2018-11-03T09:23:19.663Z,13.80
2018-11-03T09:25:52.409Z,14.77
2018-11-03T09:28:24.524Z,14.43
2018-11-03T09:30:56.744Z,14.37
2018-11-03T09:33:29.942Z,14.50
2018-11-03T09:36:02.537Z,15.43
2018-11-03T09:38:34.031Z,14.13
2018-11-03T09:41:05.971Z,14.10
2018-11-03T09:43:38.401Z,13.77
2018-11-03T09:46:10.219Z,14.20
2018-11-03T09:48:42.028Z,14.07
2018-11-03T09:51:14.091Z,14.17
2018-11-03T09:53:46.915Z,14.60
2018-11-03T09:56:18.742Z,14.13
2018-11-03T09:58:52.099Z,14.30
2018-11-03T10:01:24.290Z,14.70
2018-11-03T10:03:57.854Z,14.97
2018-11-03T10:06:33.900Z,15.60
2018-11-03T10:09:06.833Z,14.57
2018-11-03T10:11:39.108Z,15.37
2018-11-03T10:14:10.693Z,14.67
2018-11-03T10:16:42.563Z,14.53
2018-11-03T10:19:14.063Z,13.60
2018-11-03T10:21:51.576Z,14.10
2018-11-03T10:24:23.243Z,14.93
2018-11-03T10:30:05.694Z,15.03
2018-11-03T10:32:48.018Z,15.10
2018-11-03T10:35:20.692Z,14.57
2018-11-03T10:37:53.619Z,14.80
2018-11-03T10:40:25.151Z,14.10
2018-11-03T10:42:58.508Z,16.73
2018-11-03T10:45:42.363Z,15.30
2018-11-03T10:54:41.119Z,14.10
2018-11-03T11:00:27.382Z,15.77
2018-11-03T11:03:04.572Z,14.40
2018-11-03T11:05:44.785Z,15.77
2018-11-03T11:08:22.911Z,15.47
2018-11-03T11:10:59.665Z,15.50
2018-11-03T11:13:33.680Z,14.77
2018-11-03T11:16:05.886Z,14.33
2018-11-03T11:18:37.652Z,15.13
2018-11-03T11:21:10.358Z,14.40
2018-11-03T11:23:43.406Z,15.30
2018-11-03T11:26:15.496Z,15.63
2018-11-03T11:28:47.556Z,16.00
2018-11-03T11:31:19.234Z,16.10
2018-11-03T11:33:51.995Z,16.37
2018-11-03T11:36:24.711Z,16.73
2018-11-03T11:38:56.298Z,16.00
2018-11-03T11:41:28.487Z,16.97
2018-11-03T11:44:00.941Z,17.20
2018-11-03T11:46:32.583Z,16.87
2018-11-03T11:49:04.276Z,17.53
2018-11-03T11:51:36.511Z,18.03
2018-11-03T11:54:08.575Z,17.73
2018-11-03T11:56:40.029Z,18.60
2018-11-03T11:59:10.503Z,19.37
2018-11-03T12:01:42.565Z,19.17
2018-11-03T12:04:15.009Z,20.03
2018-11-03T12:06:47.099Z,18.97
2018-11-03T12:09:20.486Z,20.13
2018-11-03T12:11:52.905Z,23.27
2018-11-03T12:14:25.478Z,21.73
2018-11-03T12:16:58.058Z,20.07
2018-11-03T12:19:30.375Z,20.40
2018-11-03T12:22:03.233Z,20.03
2018-11-03T12:24:34.915Z,19.30
2018-11-03T12:27:06.605Z,19.10
2018-11-03T12:29:39.313Z,20.17
2018-11-03T12:32:11.001Z,18.50
2018-11-03T12:34:42.468Z,19.53
2018-11-03T12:37:14.103Z,19.53
2018-11-03T12:39:46.552Z,18.77
2018-11-03T12:42:18.457Z,20.00
2018-11-03T12:44:50.311Z,20.00
2018-11-03T12:47:22.837Z,20.70
2018-11-03T12:50:00.831Z,20.73
2018-11-03T12:52:33.217Z,20.20
2018-11-03T12:55:05.362Z,22.27
2018-11-03T12:57:38.316Z,21.60
2018-11-03T13:00:13.684Z,21.00
2018-11-03T13:02:46.113Z,21.93
2018-11-03T13:05:19.195Z,21.57
2018-11-03T13:07:51.543Z,22.27
2018-11-03T13:10:23.521Z,23.93
2018-11-03T13:12:54.933Z,22.97
2018-11-03T13:15:28.527Z,23.43
2018-11-03T13:18:01.457Z,24.33
2018-11-03T13:20:33.015Z,24.33
2018-11-03T13:23:05.189Z,22.90
2018-11-03T13:25:37.551Z,24.23
2018-11-03T13:28:09.615Z,22.63
2018-11-03T13:30:41.109Z,23.00
2018-11-03T13:33:12.487Z,22.37
2018-11-03T13:35:45.139Z,22.27
2018-11-03T13:38:16.961Z,22.77
2018-11-03T13:40:48.555Z,23.60
2018-11-03T13:43:25.527Z,23.60
2018-11-03T13:45:58.075Z,23.30
2018-11-03T13:48:30.927Z,24.43
2018-11-03T13:51:02.843Z,24.67
2018-11-03T13:53:35.383Z,24.67
2018-11-03T13:56:08.094Z,25.00
2018-11-03T13:58:40.888Z,25.00
2018-11-03T14:01:12.283Z,23.73
2018-11-03T14:03:44.922Z,24.40
2018-11-03T14:06:16.975Z,25.30
2018-11-03T14:08:48.561Z,24.77
2018-11-03T14:11:20.887Z,24.93
2018-11-03T14:13:53.534Z,25.13
2018-11-03T14:16:25.473Z,25.40
2018-11-03T14:18:57.296Z,25.80
2018-11-03T14:21:29.211Z,26.77
2018-11-03T14:24:01.523Z,26.47
2018-11-03T14:26:32.794Z,26.63
2018-11-03T14:29:04.849Z,26.57
2018-11-03T14:31:37.223Z,25.67
2018-11-03T14:34:09.271Z,26.90
2018-11-03T14:36:41.187Z,26.33
2018-11-03T14:39:12.993Z,25.17
2018-11-03T14:41:44.962Z,26.10
2018-11-03T14:44:17.416Z,27.13
2018-11-03T14:46:49.322Z,26.07
2018-11-03T14:49:22.215Z,26.20
2018-11-03T14:51:54.996Z,27.43
2018-11-03T14:54:26.248Z,28.70
2018-11-03T14:56:58.008Z,26.87
2018-11-03T14:59:30.584Z,26.03
2018-11-03T15:02:03.465Z,27.23
2018-11-03T15:04:34.935Z,26.50
2018-11-03T15:07:07.172Z,26.87
2018-11-03T15:09:39.481Z,27.20
2018-11-03T15:12:11.964Z,26.57
2018-11-03T15:14:43.484Z,28.13
2018-11-03T15:17:15.149Z,28.67
2018-11-03T15:19:47.130Z,27.90
2018-11-03T15:22:18.802Z,29.27
2018-11-03T15:24:50.401Z,28.73
2018-11-03T15:27:23.335Z,27.80
2018-11-03T15:29:55.621Z,29.07
2018-11-03T15:32:27.687Z,29.60
2018-11-03T15:35:00.738Z,28.60
2018-11-03T15:37:33.421Z,30.33
2018-11-03T15:40:07.043Z,30.50
2018-11-03T15:42:38.872Z,31.40
2018-11-03T15:45:13.341Z,30.97
2018-11-03T15:47:46.412Z,31.97
2018-11-03T15:50:18.747Z,32.13
2018-11-03T15:52:50.183Z,32.53
2018-11-03T15:55:23.229Z,30.80
2018-11-03T15:57:59.703Z,31.07
2018-11-03T16:00:31.557Z,30.20
2018-11-03T16:03:03.142Z,32.03
2018-11-03T16:05:35.469Z,32.23
2018-11-03T16:08:07.613Z,31.20
2018-11-03T16:10:39.035Z,30.83
2018-11-03T16:13:10.959Z,32.17
2018-11-03T16:15:44.325Z,31.87
2018-11-03T16:18:17.562Z,31.37
2018-11-03T16:20:50.573Z,31.03
2018-11-03T16:23:22.994Z,31.07
2018-11-03T16:25:55.797Z,31.70
2018-11-03T16:28:27.591Z,29.27
2018-11-03T16:30:59.339Z,31.27
2018-11-03T16:33:31.627Z,31.70
2018-11-03T16:36:03.804Z,34.80
2018-11-03T16:38:36.635Z,32.10
2018-11-03T16:41:10.661Z,31.03
2018-11-03T16:43:43.403Z,31.03
2018-11-03T16:46:15.216Z,31.87
2018-11-03T16:48:46.983Z,30.83
2018-11-03T16:51:19.847Z,31.17
2018-11-03T16:53:51.713Z,30.57
2018-11-03T16:56:26.365Z,34.37
2018-11-03T16:58:58.725Z,32.00
2018-11-03T17:01:31.661Z,31.40
2018-11-03T17:04:03.989Z,31.43
2018-11-03T17:06:35.899Z,32.53
2018-11-03T17:09:08.198Z,31.87
2018-11-03T17:11:40.355Z,33.30
2018-11-03T17:14:12.031Z,32.83
2018-11-03T17:16:43.661Z,32.57
2018-11-03T17:19:15.696Z,34.57
2018-11-03T17:21:47.414Z,32.97
2018-11-03T17:24:19.009Z,32.80
2018-11-03T17:26:50.499Z,33.10
2018-11-03T17:29:22.853Z,34.57
2018-11-03T17:32:00.295Z,32.50
2018-11-03T17:34:31.802Z,34.20
2018-11-03T17:37:03.592Z,39.50
2018-11-03T17:39:35.882Z,34.43
2018-11-03T17:42:08.787Z,33.43
2018-11-03T17:44:40.492Z,34.37
2018-11-03T17:47:12.282Z,33.00
2018-11-03T17:49:44.786Z,35.60
2018-11-03T17:52:17.399Z,36.53
2018-11-03T17:54:49.247Z,33.30
2018-11-03T17:57:21.546Z,34.93
2018-11-03T17:59:54.208Z,34.60
2018-11-03T18:02:25.901Z,34.73
2018-11-03T18:04:57.498Z,35.83
2018-11-03T18:07:29.802Z,35.40
2018-11-03T18:10:02.623Z,34.87
2018-11-03T18:12:34.457Z,35.20
2018-11-03T18:15:06.397Z,36.50
2018-11-03T18:17:38.552Z,36.40
2018-11-03T18:20:11.049Z,35.10
2018-11-03T18:22:43.042Z,36.63
2018-11-03T18:25:14.613Z,37.00
2018-11-03T18:27:47.076Z,36.10
2018-11-03T18:30:18.547Z,35.93
2018-11-03T18:32:50.113Z,36.40
2018-11-03T18:35:22.508Z,34.17
2018-11-03T18:37:54.847Z,34.13
2018-11-03T18:40:26.339Z,33.73
2018-11-03T18:42:58.216Z,33.60
2018-11-03T18:45:30.784Z,33.27
2018-11-03T18:48:03.096Z,34.37
2018-11-03T18:50:34.738Z,32.37
2018-11-03T18:53:06.213Z,32.30
2018-11-03T18:55:38.530Z,32.23
2018-11-03T18:58:10.875Z,32.70
2018-11-03T19:00:42.788Z,32.67
2018-11-03T19:03:14.326Z,32.53
2018-11-03T19:05:46.602Z,31.33
2018-11-03T19:08:18.040Z,32.47
2018-11-03T19:10:49.843Z,31.80
2018-11-03T19:13:22.117Z,32.80
2018-11-03T19:15:54.398Z,32.27
2018-11-03T19:18:25.759Z,31.50
2018-11-03T19:20:57.180Z,32.63
2018-11-03T19:23:29.369Z,32.43
2018-11-03T19:26:01.877Z,32.90
2018-11-03T19:28:34.737Z,34.10
2018-11-03T19:31:06.471Z,33.90
2018-11-03T19:33:38.629Z,32.37
2018-11-03T19:36:10.729Z,32.80
2018-11-03T19:38:42.197Z,39.37
2018-11-03T19:41:14.187Z,31.40
2018-11-03T19:43:46.470Z,33.13
2018-11-03T19:46:18.498Z,31.70
2018-11-03T19:48:49.570Z,31.53
2018-11-03T19:51:22.041Z,31.23
2018-11-03T19:53:54.245Z,32.30
2018-11-03T19:56:25.925Z,32.57
2018-11-03T19:58:57.519Z,30.87
2018-11-03T20:01:29.808Z,30.27
2018-11-03T20:04:02.883Z,29.73
2018-11-03T20:06:34.309Z,29.10
2018-11-03T20:09:07.252Z,30.23
2018-11-03T20:11:39.620Z,28.37
2018-11-03T20:14:11.403Z,25.73
2018-11-03T20:16:43.110Z,26.10
2018-11-03T20:19:14.538Z,25.87
2018-11-03T20:21:47.804Z,25.87
2018-11-03T20:24:19.376Z,25.60
2018-11-03T20:26:50.951Z,24.13
2018-11-03T20:29:22.782Z,25.40
2018-11-03T20:31:55.182Z,25.20
2018-11-03T20:34:26.951Z,25.17
2018-11-03T20:36:58.623Z,25.20
2018-11-03T20:39:31.008Z,24.63
2018-11-03T20:42:03.498Z,25.73
2018-11-03T20:44:35.189Z,25.10
2018-11-03T20:47:07.071Z,26.87
2018-11-03T20:49:39.417Z,24.40
2018-11-03T20:52:11.173Z,25.33
2018-11-03T20:54:43.029Z,25.63
2018-11-03T20:57:14.606Z,24.47
2018-11-03T20:59:47.451Z,24.73
2018-11-03T21:02:19.177Z,24.40
2018-11-03T21:04:52.787Z,25.80
2018-11-03T21:07:25.339Z,24.70
2018-11-03T21:09:57.328Z,24.83
2018-11-03T21:12:28.749Z,24.77
2018-11-03T21:15:00.719Z,25.57
2018-11-03T21:17:32.008Z,25.33
2018-11-03T21:20:04.231Z,24.40
2018-11-03T21:22:37.309Z,24.93
2018-11-03T21:25:08.796Z,24.80
2018-11-03T21:27:42.317Z,24.63
2018-11-03T21:30:14.491Z,25.23
2018-11-03T21:32:46.153Z,25.83
2018-11-03T21:35:18.786Z,25.67
2018-11-03T21:37:50.878Z,25.07
2018-11-03T21:40:22.418Z,25.40
2018-11-03T21:42:53.912Z,27.33
2018-11-03T21:45:25.668Z,27.47
2018-11-03T21:47:58.128Z,27.40
2018-11-03T21:50:29.546Z,26.83
2018-11-03T21:53:00.597Z,25.83
2018-11-03T21:55:32.731Z,27.70
2018-11-03T21:58:05.060Z,26.80
2018-11-03T22:00:37.501Z,28.20
2018-11-03T22:03:08.556Z,29.03
2018-11-03T22:05:40.899Z,27.70
2018-11-03T22:08:12.707Z,27.23
2018-11-03T22:10:44.471Z,27.47
2018-11-03T22:13:16.976Z,27.03
2018-11-03T22:15:49.907Z,28.40
2018-11-03T22:18:22.158Z,27.00
2018-11-03T22:20:53.595Z,25.50
2018-11-03T22:23:25.982Z,26.73
2018-11-03T22:25:58.074Z,28.17
2018-11-03T22:28:29.991Z,28.23
2018-11-03T22:31:01.369Z,27.60
2018-11-03T22:33:33.727Z,28.80
2018-11-03T22:36:05.817Z,27.03
2018-11-03T22:38:37.615Z,29.90
2018-11-03T22:41:09.363Z,28.10
2018-11-03T22:43:41.936Z,27.70
2018-11-03T22:46:13.963Z,28.77
2018-11-03T22:48:45.521Z,30.00
2018-11-03T22:51:17.750Z,28.47
2018-11-03T22:53:49.841Z,29.43
2018-11-03T22:56:21.275Z,28.53
2018-11-03T22:58:52.745Z,27.43
2018-11-03T23:01:24.375Z,27.77
2018-11-03T23:03:56.384Z,27.00
2018-11-03T23:06:27.762Z,29.23
2018-11-03T23:09:00.666Z,28.50
2018-11-03T23:11:32.997Z,29.10
2018-11-03T23:14:05.576Z,27.83
2018-11-03T23:16:37.117Z,29.53
2018-11-03T23:19:08.903Z,31.43
2018-11-03T23:21:41.167Z,30.07
2018-11-03T23:24:14.190Z,33.80
2018-11-03T23:26:45.428Z,31.97
2018-11-03T23:29:17.273Z,35.90
2018-11-03T23:31:50.093Z,34.47
2018-11-03T23:34:21.469Z,37.00
2018-11-03T23:36:52.930Z,38.33
2018-11-03T23:39:25.281Z,35.87
2018-11-03T23:41:57.704Z,37.53
2018-11-03T23:44:29.184Z,36.53
2018-11-03T23:47:00.630Z,36.93
2018-11-03T23:49:32.791Z,36.80
2018-11-03T23:52:04.914Z,35.77
2018-11-03T23:54:37.601Z,34.10
2018-11-03T23:57:08.881Z,33.87
2018-11-03T23:59:40.965Z,34.43
